createdAt,value
2022-09-28T00:01:26.815Z,4.57
2022-09-28T00:04:00.169Z,4.38
2022-09-28T00:06:30.502Z,4.47
2022-09-28T00:08:58.971Z,4.15
2022-09-28T00:11:28.450Z,4.93
2022-09-28T00:14:00.509Z,5.07
2022-09-28T00:16:33.295Z,4.43
2022-09-28T00:19:01.772Z,4.78
2022-09-28T00:21:31.618Z,5.00
2022-09-28T00:24:13.502Z,4.95
2022-09-28T00:26:45.110Z,4.78
2022-09-28T00:29:25.388Z,4.88
2022-09-28T00:32:00.357Z,5.40
2022-09-28T00:34:32.379Z,5.25
2022-09-28T00:37:00.234Z,5.20
2022-09-28T00:39:27.815Z,5.80
2022-09-28T00:41:55.836Z,5.63
2022-09-28T00:44:51.994Z,5.38
2022-09-28T00:50:09.266Z,4.57
2022-09-28T00:52:42.113Z,5.80
2022-09-28T00:55:14.503Z,5.10
2022-09-28T00:57:46.486Z,6.18
2022-09-28T01:00:14.614Z,4.85
2022-09-28T01:02:42.528Z,5.63
2022-09-28T01:05:11.425Z,5.22
2022-09-28T01:07:39.721Z,4.68
2022-09-28T01:10:07.742Z,4.90
2022-09-28T01:12:35.134Z,4.88
2022-09-28T01:15:04.237Z,5.60
2022-09-28T01:17:40.257Z,4.85
2022-09-28T01:20:27.370Z,4.90
2022-09-28T01:23:32.205Z,5.80
2022-09-28T01:26:14.928Z,5.32
2022-09-28T01:28:44.724Z,4.45
2022-09-28T01:31:14.973Z,4.55
2022-09-28T01:33:57.900Z,4.30
2022-09-28T01:36:30.385Z,5.55
2022-09-28T01:39:11.473Z,4.57
2022-09-28T01:41:41.584Z,4.47
2022-09-28T01:44:16.533Z,4.88
2022-09-28T01:46:49.216Z,5.20
2022-09-28T01:49:42.968Z,5.03
2022-09-28T01:52:24.839Z,5.45
2022-09-28T01:55:07.046Z,5.93
2022-09-28T01:57:42.545Z,5.57
2022-09-28T02:00:12.788Z,4.90
2022-09-28T02:03:09.258Z,5.95
2022-09-28T02:05:40.256Z,5.22
2022-09-28T02:08:18.198Z,5.32
2022-09-28T02:10:53.418Z,5.20
2022-09-28T02:13:46.636Z,5.35
2022-09-28T02:16:19.117Z,5.68
2022-09-28T02:18:47.479Z,6.43
2022-09-28T02:21:47.066Z,5.82
2022-09-28T02:24:29.100Z,5.28
2022-09-28T02:27:00.868Z,5.70
2022-09-28T02:29:28.255Z,5.05
2022-09-28T02:31:55.451Z,5.18
2022-09-28T02:34:22.834Z,6.00
2022-09-28T02:36:50.604Z,5.88
2022-09-28T02:39:19.341Z,5.53
2022-09-28T02:41:53.529Z,4.68
2022-09-28T02:44:42.640Z,4.82
2022-09-28T02:47:46.549Z,4.60
2022-09-28T02:50:33.942Z,5.15
2022-09-28T02:53:30.610Z,5.35
2022-09-28T02:56:36.825Z,4.90
2022-09-28T02:59:25.996Z,5.53
2022-09-28T03:02:39.738Z,6.00
2022-09-28T03:05:26.181Z,5.18
2022-09-28T03:08:05.495Z,6.07
2022-09-28T03:10:43.783Z,5.78
2022-09-28T03:13:12.668Z,5.20
2022-09-28T03:15:46.450Z,5.07
2022-09-28T03:18:15.922Z,6.25
2022-09-28T03:20:43.353Z,6.57
2022-09-28T03:23:24.278Z,6.10
2022-09-28T03:25:52.123Z,6.15
2022-09-28T03:28:19.813Z,7.03
2022-09-28T03:30:47.209Z,8.25
2022-09-28T03:35:55.382Z,7.57
2022-09-28T03:38:22.792Z,6.30
2022-09-28T03:40:59.618Z,8.13
2022-09-28T03:43:28.455Z,6.25
2022-09-28T03:45:58.954Z,6.93
2022-09-28T03:48:32.898Z,7.38
2022-09-28T03:51:03.545Z,8.68
2022-09-28T03:53:30.969Z,8.63
2022-09-28T03:56:12.292Z,9.00
2022-09-28T03:58:39.496Z,10.18
2022-09-28T04:01:17.732Z,11.05
2022-09-28T04:03:45.820Z,10.68
2022-09-28T04:06:14.035Z,11.80
2022-09-28T04:08:41.608Z,10.95
2022-09-28T04:11:08.775Z,11.75
2022-09-28T04:13:36.071Z,11.07
2022-09-28T04:16:05.198Z,11.82
2022-09-28T04:18:33.262Z,11.20
2022-09-28T04:21:09.381Z,11.90
2022-09-28T04:23:39.219Z,12.88
2022-09-28T04:26:12.087Z,12.15
2022-09-28T04:29:01.591Z,14.57
2022-09-28T04:31:37.282Z,12.90
2022-09-28T04:34:04.572Z,11.88
2022-09-28T04:36:31.758Z,11.63
2022-09-28T04:39:00.266Z,12.32
2022-09-28T04:41:27.915Z,12.50
2022-09-28T04:43:55.495Z,10.50
2022-09-28T04:46:22.802Z,13.20
2022-09-28T04:48:50.068Z,12.43
2022-09-28T04:51:17.224Z,11.38
2022-09-28T04:53:44.639Z,10.93
2022-09-28T04:56:14.005Z,12.50
2022-09-28T04:58:41.993Z,12.98
2022-09-28T05:01:12.855Z,12.10
2022-09-28T05:03:40.104Z,12.13
2022-09-28T05:06:07.874Z,13.60
2022-09-28T05:08:36.097Z,12.57
2022-09-28T05:11:06.193Z,14.18
2022-09-28T05:13:40.795Z,15.40
2022-09-28T05:16:09.345Z,15.10
2022-09-28T05:18:36.447Z,14.52
2022-09-28T05:21:04.307Z,14.68
2022-09-28T05:23:32.764Z,14.88
2022-09-28T05:26:02.700Z,14.50
2022-09-28T05:28:32.770Z,13.93
2022-09-28T05:31:04.906Z,14.02
2022-09-28T05:33:33.594Z,14.65
2022-09-28T05:36:01.756Z,16.40
2022-09-28T05:38:30.243Z,15.20
2022-09-28T05:40:57.945Z,14.75
2022-09-28T05:43:25.241Z,15.70
2022-09-28T05:45:55.536Z,15.15
2022-09-28T05:48:23.534Z,19.98
2022-09-28T05:50:54.311Z,14.77
2022-09-28T05:53:21.625Z,15.32
2022-09-28T05:55:48.989Z,16.70
2022-09-28T05:58:17.292Z,20.85
2022-09-28T06:00:44.440Z,15.48
2022-09-28T06:03:13.872Z,17.65
2022-09-28T06:05:41.766Z,17.70
2022-09-28T06:08:13.568Z,15.85
2022-09-28T06:10:41.220Z,15.68
2022-09-28T06:13:09.167Z,15.45
2022-09-28T06:15:37.345Z,14.27
2022-09-28T06:18:11.300Z,15.80
2022-09-28T06:20:43.202Z,13.70
2022-09-28T06:23:11.792Z,14.32
2022-09-28T06:25:40.214Z,14.77
2022-09-28T06:28:12.979Z,13.15
2022-09-28T06:30:41.669Z,14.73
2022-09-28T06:33:12.916Z,14.48
2022-09-28T06:35:41.156Z,13.00
2022-09-28T06:38:08.563Z,16.10
2022-09-28T06:40:36.388Z,14.00
2022-09-28T06:43:10.988Z,13.73
2022-09-28T06:45:39.117Z,13.13
2022-09-28T06:48:07.335Z,16.20
2022-09-28T06:50:42.449Z,17.70
2022-09-28T06:53:13.895Z,16.27
2022-09-28T06:55:50.954Z,13.77
2022-09-28T06:58:20.990Z,15.18
2022-09-28T07:00:50.281Z,16.17
2022-09-28T07:03:20.334Z,15.48
2022-09-28T07:05:50.362Z,13.45
2022-09-28T07:08:18.686Z,15.07
2022-09-28T07:10:49.005Z,17.38
2022-09-28T07:13:44.370Z,16.17
2022-09-28T07:16:04.767Z,14.18
2022-09-28T07:18:32.243Z,13.93
2022-09-28T07:21:00.010Z,16.33
2022-09-28T07:23:28.778Z,14.77
2022-09-28T07:25:56.558Z,16.27
2022-09-28T07:28:24.101Z,15.07
2022-09-28T07:30:51.305Z,13.95
2022-09-28T07:33:18.738Z,15.23
2022-09-28T07:35:54.344Z,13.75
2022-09-28T07:38:21.911Z,14.20
2022-09-28T07:41:08.434Z,14.25
2022-09-28T07:43:35.707Z,15.40
2022-09-28T07:46:02.983Z,15.02
2022-09-28T07:48:38.202Z,15.70
2022-09-28T07:51:05.418Z,14.20
2022-09-28T07:53:32.926Z,15.00
2022-09-28T07:56:06.052Z,15.82
2022-09-28T07:58:35.124Z,15.00
2022-09-28T08:01:15.127Z,15.35
2022-09-28T08:03:45.557Z,16.98
2022-09-28T08:06:14.760Z,14.68
2022-09-28T08:08:44.971Z,15.15
2022-09-28T08:11:14.874Z,15.80
2022-09-28T08:13:43.493Z,14.63
2022-09-28T08:16:11.813Z,14.48
2022-09-28T08:18:39.242Z,14.60
2022-09-28T08:21:25.709Z,14.77
2022-09-28T08:23:53.416Z,14.38
2022-09-28T08:26:20.828Z,15.18
2022-09-28T08:28:48.032Z,13.43
2022-09-28T08:31:15.388Z,15.07
2022-09-28T08:33:44.204Z,14.95
2022-09-28T08:36:11.789Z,14.88
2022-09-28T08:38:40.983Z,16.50
2022-09-28T08:41:45.698Z,15.48
2022-09-28T08:44:15.843Z,14.45
2022-09-28T08:46:48.195Z,16.80
2022-09-28T08:49:25.246Z,15.55
2022-09-28T08:52:14.288Z,17.45
2022-09-28T08:54:47.147Z,15.60
2022-09-28T08:57:19.497Z,15.55
2022-09-28T08:59:56.296Z,14.98
2022-09-28T09:02:36.667Z,14.10
2022-09-28T09:05:07.084Z,13.95
2022-09-28T09:08:04.499Z,14.70
2022-09-28T09:10:53.594Z,14.88
2022-09-28T09:13:49.428Z,14.80
2022-09-28T09:16:22.799Z,14.18
2022-09-28T09:18:58.786Z,14.45
2022-09-28T09:21:47.781Z,13.70
2022-09-28T09:24:27.593Z,12.95
2022-09-28T09:27:28.973Z,13.07
2022-09-28T09:30:03.609Z,13.45
2022-09-28T09:32:53.737Z,12.05
2022-09-28T09:35:30.661Z,11.95
2022-09-28T09:38:22.211Z,12.18
2022-09-28T09:41:21.504Z,11.20
2022-09-28T09:44:27.097Z,10.65
2022-09-28T09:47:08.326Z,11.32
2022-09-28T09:49:46.159Z,10.63
2022-09-28T09:52:39.903Z,10.23
2022-09-28T09:58:10.315Z,10.45
2022-09-28T10:00:46.939Z,11.32
2022-09-28T10:03:23.392Z,10.45
2022-09-28T10:06:12.254Z,10.43
2022-09-28T10:08:44.928Z,10.80
2022-09-28T10:11:16.503Z,10.75
2022-09-28T10:13:44.953Z,10.27
2022-09-28T10:16:12.500Z,8.77
2022-09-28T10:18:43.083Z,8.70
2022-09-28T10:21:19.021Z,9.77
2022-09-28T10:23:48.620Z,10.35
2022-09-28T10:26:44.438Z,9.63
2022-09-28T10:29:23.541Z,10.07
2022-09-28T10:31:52.738Z,9.98
2022-09-28T10:34:29.059Z,11.00
2022-09-28T10:37:06.656Z,9.90
2022-09-28T10:39:55.937Z,8.57
2022-09-28T10:42:32.565Z,9.70
2022-09-28T10:45:01.577Z,7.43
2022-09-28T10:47:32.809Z,7.63
2022-09-28T10:50:01.138Z,7.32
2022-09-28T10:52:43.538Z,7.68
2022-09-28T10:55:32.911Z,7.65
2022-09-28T10:58:00.915Z,6.00
2022-09-28T11:00:40.749Z,5.90
2022-09-28T11:03:23.453Z,5.72
2022-09-28T11:06:06.499Z,6.65
2022-09-28T11:08:39.319Z,5.68
2022-09-28T11:11:15.888Z,7.90
2022-09-28T11:13:48.877Z,8.70
2022-09-28T11:16:39.196Z,8.10
2022-09-28T11:19:29.996Z,8.00
2022-09-28T11:21:57.356Z,6.93
2022-09-28T11:24:26.496Z,7.53
2022-09-28T11:27:00.459Z,6.53
2022-09-28T11:29:46.384Z,7.28
2022-09-28T11:32:15.989Z,6.82
2022-09-28T11:34:59.281Z,6.80
2022-09-28T11:37:49.881Z,6.65
2022-09-28T11:40:40.258Z,5.75
2022-09-28T11:43:33.500Z,5.90
2022-09-28T11:46:35.088Z,5.85
2022-09-28T11:49:38.143Z,6.72
2022-09-28T11:52:21.394Z,7.30
2022-09-28T11:55:18.045Z,7.28
2022-09-28T11:57:50.924Z,8.23
2022-09-28T12:00:22.817Z,6.95
2022-09-28T12:02:56.505Z,6.88
2022-09-28T12:05:37.064Z,5.80
2022-09-28T12:08:22.644Z,6.57
2022-09-28T12:10:57.258Z,7.28
2022-09-28T12:13:39.285Z,5.80
2022-09-28T12:19:36.149Z,6.28
2022-09-28T12:22:25.677Z,5.95
2022-09-28T12:24:57.475Z,5.35
2022-09-28T12:27:59.755Z,5.75
2022-09-28T12:30:31.417Z,5.90
2022-09-28T12:33:15.675Z,6.03
2022-09-28T12:36:05.481Z,5.95
2022-09-28T12:39:21.836Z,5.65
2022-09-28T12:42:10.528Z,6.70
2022-09-28T12:44:45.219Z,6.43
2022-09-28T12:47:30.295Z,7.00
2022-09-28T12:53:38.578Z,6.40
2022-09-28T12:56:23.107Z,6.50
2022-09-28T12:59:13.706Z,6.28
2022-09-28T13:01:58.423Z,6.28
2022-09-28T13:04:44.616Z,7.65
2022-09-28T13:07:23.218Z,7.60
2022-09-28T13:09:55.693Z,6.88
2022-09-28T13:12:55.243Z,7.40
2022-09-28T13:16:03.378Z,7.63
2022-09-28T13:18:36.696Z,8.63
2022-09-28T13:21:09.734Z,6.70
2022-09-28T13:23:46.668Z,7.13
2022-09-28T13:26:27.392Z,7.68
2022-09-28T13:29:02.721Z,6.55
2022-09-28T13:34:05.027Z,5.38
2022-09-28T13:36:32.402Z,5.22
2022-09-28T13:39:00.952Z,5.25
2022-09-28T13:41:30.125Z,5.53
2022-09-28T13:44:41.451Z,5.15
2022-09-28T13:47:20.525Z,5.78
2022-09-28T13:50:32.811Z,4.82
2022-09-28T13:53:04.938Z,5.35
2022-09-28T13:55:53.549Z,4.32
2022-09-28T13:58:25.696Z,5.78
2022-09-28T14:01:05.043Z,5.68
2022-09-28T14:03:56.044Z,4.90
2022-09-28T14:06:32.370Z,5.85
2022-09-28T14:09:09.039Z,5.03
2022-09-28T14:11:36.084Z,6.93
2022-09-28T14:14:26.301Z,7.38
2022-09-28T14:17:19.777Z,7.85
2022-09-28T14:20:11.577Z,7.13
2022-09-28T14:23:03.661Z,7.50
2022-09-28T14:26:01.034Z,7.18
2022-09-28T14:28:54.912Z,6.47
2022-09-28T14:31:29.772Z,6.50
2022-09-28T14:34:03.548Z,6.35
2022-09-28T14:37:00.016Z,8.63
2022-09-28T14:39:49.526Z,9.93
2022-09-28T14:42:23.350Z,8.95
2022-09-28T14:45:17.088Z,7.32
2022-09-28T14:48:04.568Z,6.75
2022-09-28T14:50:31.890Z,7.95
2022-09-28T14:53:06.888Z,9.00
2022-09-28T14:55:51.427Z,7.57
2022-09-28T14:58:27.775Z,6.90
2022-09-28T15:01:13.170Z,6.85
2022-09-28T15:03:42.976Z,8.45
2022-09-28T15:06:16.615Z,9.13
2022-09-28T15:08:43.916Z,8.05
2022-09-28T15:11:29.526Z,9.27
2022-09-28T15:14:07.619Z,9.85
2022-09-28T15:16:34.827Z,9.27
2022-09-28T15:19:10.694Z,7.85
2022-09-28T15:21:41.286Z,7.25
2022-09-28T15:24:33.352Z,7.18
2022-09-28T15:27:02.577Z,7.57
2022-09-28T15:29:33.745Z,6.72
2022-09-28T15:32:00.980Z,6.25
2022-09-28T15:34:51.835Z,9.32
2022-09-28T15:37:29.821Z,6.85
2022-09-28T15:39:58.571Z,6.85
2022-09-28T15:42:26.102Z,6.30
2022-09-28T15:45:13.926Z,6.53
2022-09-28T15:47:43.765Z,5.75
2022-09-28T15:50:29.551Z,6.75
2022-09-28T15:55:33.361Z,6.38
2022-09-28T15:58:17.332Z,6.50
2022-09-28T16:00:52.194Z,6.65
2022-09-28T16:03:28.068Z,6.80
2022-09-28T16:05:58.262Z,6.93
2022-09-28T16:08:33.166Z,7.43
2022-09-28T16:11:24.233Z,8.52
2022-09-28T16:14:06.326Z,6.95
2022-09-28T16:16:49.799Z,6.93
2022-09-28T16:19:24.621Z,6.82
2022-09-28T16:22:04.146Z,8.00
2022-09-28T16:24:37.386Z,7.00
2022-09-28T16:27:06.222Z,8.95
2022-09-28T16:29:40.196Z,7.88
2022-09-28T16:32:25.928Z,8.27
2022-09-28T16:35:21.584Z,8.48
2022-09-28T16:37:56.887Z,9.30
2022-09-28T16:42:51.275Z,9.20
2022-09-28T16:45:21.330Z,7.97
2022-09-28T16:47:53.107Z,8.52
2022-09-28T16:50:21.723Z,8.52
2022-09-28T16:53:35.858Z,7.60
2022-09-28T16:56:04.524Z,6.97
2022-09-28T16:58:32.165Z,6.18
2022-09-28T17:01:00.550Z,7.05
2022-09-28T17:03:28.673Z,6.07
2022-09-28T17:05:56.876Z,7.28
2022-09-28T17:08:25.283Z,6.82
2022-09-28T17:11:23.400Z,8.05
2022-09-28T17:13:49.740Z,7.65
2022-09-28T17:16:28.234Z,7.20
2022-09-28T17:19:20.073Z,7.65
2022-09-28T17:21:47.691Z,8.05
2022-09-28T17:24:14.780Z,7.75
2022-09-28T17:26:44.480Z,7.35
2022-09-28T17:29:14.977Z,7.47
2022-09-28T17:31:46.597Z,7.38
2022-09-28T17:34:16.560Z,9.07
2022-09-28T17:36:45.129Z,7.85
2022-09-28T17:39:17.794Z,7.70
2022-09-28T17:41:45.449Z,7.93
2022-09-28T17:44:16.714Z,8.48
2022-09-28T17:46:50.059Z,6.93
2022-09-28T17:49:17.383Z,8.35
2022-09-28T17:51:45.223Z,8.70
2022-09-28T17:54:13.901Z,8.10
2022-09-28T17:56:42.703Z,7.85
2022-09-28T17:59:13.744Z,6.75
2022-09-28T18:01:41.180Z,7.45
2022-09-28T18:04:27.915Z,7.55
2022-09-28T18:07:00.873Z,8.57
2022-09-28T18:09:28.506Z,7.45
2022-09-28T18:12:05.577Z,6.95
2022-09-28T18:14:32.807Z,7.53
2022-09-28T18:17:00.104Z,7.43
2022-09-28T18:19:31.891Z,8.52
2022-09-28T18:21:59.479Z,8.10
2022-09-28T18:24:26.948Z,6.43
2022-09-28T18:26:54.025Z,7.57
2022-09-28T18:29:22.526Z,6.72
2022-09-28T18:31:49.922Z,7.00
2022-09-28T18:34:17.093Z,7.32
2022-09-28T18:36:44.265Z,8.10
2022-09-28T18:39:11.866Z,8.88
2022-09-28T18:41:39.180Z,7.95
2022-09-28T18:44:07.290Z,7.55
2022-09-28T18:46:36.594Z,7.45
2022-09-28T18:49:07.332Z,7.57
2022-09-28T18:51:34.497Z,7.78
2022-09-28T18:54:07.647Z,7.57
2022-09-28T18:56:37.651Z,6.80
2022-09-28T18:59:11.758Z,7.20
2022-09-28T19:01:42.131Z,6.78
2022-09-28T19:04:10.864Z,7.60
2022-09-28T19:06:42.964Z,7.20
2022-09-28T19:09:11.240Z,6.47
2022-09-28T19:11:38.703Z,7.70
2022-09-28T19:14:05.887Z,8.60
2022-09-28T19:16:36.329Z,7.32
2022-09-28T19:19:03.579Z,7.03
2022-09-28T19:21:31.314Z,6.97
2022-09-28T19:24:04.860Z,6.65
2022-09-28T19:26:33.273Z,6.72
2022-09-28T19:29:01.301Z,7.60
2022-09-28T19:31:30.267Z,7.85
2022-09-28T19:33:57.455Z,7.80
2022-09-28T19:36:26.504Z,7.70
2022-09-28T19:38:53.831Z,7.20
2022-09-28T19:41:44.962Z,6.65
2022-09-28T19:44:16.919Z,7.38
2022-09-28T19:46:44.496Z,7.05
2022-09-28T19:49:14.666Z,7.10
2022-09-28T19:52:01.628Z,7.65
2022-09-28T19:54:35.521Z,7.38
2022-09-28T19:57:08.981Z,6.32
2022-09-28T19:59:40.693Z,7.90
2022-09-28T20:02:10.692Z,7.57
2022-09-28T20:04:38.485Z,7.25
2022-09-28T20:07:06.084Z,7.85
2022-09-28T20:09:34.053Z,7.32
2022-09-28T20:12:01.529Z,7.88
2022-09-28T20:14:34.069Z,8.07
2022-09-28T20:17:05.283Z,6.80
2022-09-28T20:19:32.908Z,6.13
2022-09-28T20:22:03.352Z,6.70
2022-09-28T20:24:31.552Z,6.97
2022-09-28T20:26:59.131Z,5.40
2022-09-28T20:29:27.063Z,5.57
2022-09-28T20:31:54.396Z,5.03
2022-09-28T20:34:21.978Z,4.22
2022-09-28T20:36:49.148Z,5.43
2022-09-28T20:39:16.316Z,4.95
2022-09-28T20:41:43.540Z,5.40
2022-09-28T20:44:11.003Z,5.28
2022-09-28T20:46:38.678Z,4.65
2022-09-28T20:49:07.440Z,4.57
2022-09-28T20:51:34.789Z,5.95
2022-09-28T20:54:02.801Z,4.80
2022-09-28T20:56:37.926Z,5.85
2022-09-28T20:59:08.190Z,4.40
2022-09-28T21:01:35.927Z,4.97
2022-09-28T21:04:05.116Z,4.55
2022-09-28T21:06:34.884Z,6.22
2022-09-28T21:09:02.563Z,5.40
2022-09-28T21:11:30.207Z,6.05
2022-09-28T21:14:00.720Z,6.55
2022-09-28T21:16:30.339Z,7.30
2022-09-28T21:19:00.870Z,7.25
2022-09-28T21:21:28.407Z,6.65
2022-09-28T21:23:56.546Z,6.97
2022-09-28T21:26:31.439Z,5.65
2022-09-28T21:29:00.802Z,5.00
2022-09-28T21:31:37.570Z,6.05
2022-09-28T21:34:05.076Z,6.68
2022-09-28T21:36:32.502Z,6.00
2022-09-28T21:38:59.714Z,7.13
2022-09-28T21:41:27.202Z,7.00
2022-09-28T21:43:54.370Z,6.03
2022-09-28T21:46:21.820Z,6.32
2022-09-28T21:48:53.726Z,5.70
2022-09-28T21:51:21.432Z,6.43
2022-09-28T21:53:49.604Z,6.53
2022-09-28T21:56:16.837Z,7.35
2022-09-28T21:58:44.088Z,7.32
2022-09-28T22:01:31.961Z,9.13
2022-09-28T22:03:59.563Z,9.10
2022-09-28T22:06:30.729Z,8.07
2022-09-28T22:08:58.137Z,7.28
2022-09-28T22:11:27.863Z,6.45
2022-09-28T22:13:57.884Z,7.38
2022-09-28T22:16:28.115Z,8.20
2022-09-28T22:18:55.442Z,8.55
2022-09-28T22:21:26.464Z,8.77
2022-09-28T22:23:53.981Z,7.82
2022-09-28T22:26:24.962Z,8.05
2022-09-28T22:28:57.586Z,8.23
2022-09-28T22:31:28.737Z,9.55
2022-09-28T22:33:56.149Z,8.82
2022-09-28T22:36:23.311Z,6.85
2022-09-28T22:38:50.919Z,7.50
2022-09-28T22:41:22.932Z,8.52
2022-09-28T22:43:52.169Z,7.32
2022-09-28T22:46:27.315Z,6.72
2022-09-28T22:51:24.216Z,6.47
2022-09-28T22:53:51.675Z,8.15
2022-09-28T22:56:19.399Z,7.45
2022-09-28T22:58:47.199Z,6.82
2022-09-28T23:01:17.914Z,7.60
2022-09-28T23:03:45.857Z,7.78
2022-09-28T23:06:16.330Z,7.72
2022-09-28T23:08:44.885Z,8.43
2022-09-28T23:11:12.266Z,6.80
2022-09-28T23:13:39.666Z,7.55
2022-09-28T23:16:09.029Z,8.25
2022-09-28T23:18:38.805Z,7.75
2022-09-28T23:21:08.397Z,8.05
2022-09-28T23:23:35.530Z,7.65
2022-09-28T23:26:15.026Z,7.05
2022-09-28T23:28:42.397Z,7.57
2022-09-28T23:31:22.564Z,7.18
2022-09-28T23:33:50.379Z,7.88
2022-09-28T23:36:18.392Z,7.65
2022-09-28T23:38:45.598Z,7.88
2022-09-28T23:41:12.767Z,8.30
2022-09-28T23:43:40.113Z,7.03
2022-09-28T23:46:07.972Z,6.65
2022-09-28T23:48:35.363Z,6.50
2022-09-28T23:51:02.868Z,7.50
2022-09-28T23:53:32.513Z,6.93
2022-09-28T23:55:59.811Z,7.03
2022-09-28T23:58:27.879Z,7.78
